Time;durP1;ratioP1;P1;durP2;ratioP2;P2;SDS_P1;SDS_P2;PMS_P1;PMS_P2;Temp;Humidity;BMP_temperature;BMP_pressure;BME280_temperature;BME280_humidity;BME280_pressure;Samples;Min_cycle;Max_cycle;Signal;HPM_P1;HPM_P2
2022/11/29 05:03:25;;;;;;;;;;;;;;;5.36;100.00;99477.38;6178015;22;20052;-88
2022/11/29 05:05:56;;;;;;;;;;;;;;;5.40;100.00;99480.78;6338248;22;19915;-89
2022/11/29 05:08:37;;;;;;;;;;;;;;;5.35;100.00;99493.19;6337335;22;19911;-88
2022/11/29 05:11:21;;;;;;;;;;;;;;;5.35;100.00;99482.69;6339308;22;19960;-88
2022/11/29 05:14:07;;;;;;;;;;;;;;;5.41;100.00;99493.03;6364002;22;19910;-87
2022/11/29 05:16:48;;;;;;;;;;;;;;;5.32;100.00;99501.16;6363773;22;19950;-93
2022/11/29 05:19:19;;;;;;;;;;;;;;;5.40;100.00;99504.44;6336813;22;20266;-87
2022/11/29 05:21:59;;;;;;;;;;;;;;;5.39;100.00;99508.84;6338691;22;19985;-88
2022/11/29 05:24:37;;;;;;;;;;;;;;;5.40;100.00;99507.06;6337412;22;20330;-86
2022/11/29 05:27:21;;;;;;;;;;;;;;;5.41;100.00;99509.66;6337460;22;19910;-88
2022/11/29 05:30:10;;;;;;;;;;;;;;;5.33;100.00;99509.00;6363674;22;19915;-87
2022/11/29 05:33:06;;;;;;;;;;;;;;;5.39;100.00;99515.84;6335765;22;19911;-87
2022/11/29 05:35:40;;;;;;;;;;;;;;;5.39;100.00;99516.72;6337663;22;19915;-86
2022/11/29 05:38:24;;;;;;;;;;;;;;;5.42;100.00;99515.75;6338170;22;20218;-86
2022/11/29 05:40:52;;;;;;;;;;;;;;;5.39;100.00;99521.97;6340783;22;19915;-85
2022/11/29 05:43:28;;;;;;;;;;;;;;;5.36;100.00;99518.53;6340584;22;19910;-87
2022/11/29 05:45:56;;;;;;;;;;;;;;;5.38;100.00;99529.91;6340791;22;19964;-87
2022/11/29 05:48:37;;;;;;;;;;;;;;;5.35;100.00;99524.72;6338969;22;19953;-88
2022/11/29 05:51:21;;;;;;;;;;;;;;;5.37;100.00;99521.13;6365401;22;19915;-88
2022/11/29 05:53:53;;;;;;;;;;;;;;;5.38;100.00;99522.88;6340903;22;19910;-88
2022/11/29 05:56:37;;;;;;;;;;;;;;;5.36;100.00;99529.03;6340922;22;19993;-88
2022/11/29 05:59:06;;;;;;;;;;;;;;;5.34;100.00;99530.88;6338775;22;19986;-88
2022/11/29 06:01:41;;;;;;;;;;;;;;;5.35;100.00;99527.34;6365088;22;19922;-88
2022/11/29 06:04:12;;;;;;;;;;;;;;;5.35;100.00;99535.22;6337109;22;19932;-89
2022/11/29 06:06:51;;;;;;;;;;;;;;;5.34;100.00;99531.72;6365100;22;19944;-89
2022/11/29 06:09:21;;;;;;;;;;;;;;;5.31;100.00;99544.06;6339171;22;19910;-89
2022/11/29 06:12:05;;;;;;;;;;;;;;;5.32;100.00;99540.56;6340306;22;20014;-88
2022/11/29 06:14:49;;;;;;;;;;;;;;;5.34;100.00;99549.25;6340534;22;19946;-89
2022/11/29 06:17:17;;;;;;;;;;;;;;;5.36;100.00;99547.44;6363792;22;20234;-86
2022/11/29 06:19:48;;;;;;;;;;;;;;;5.28;100.00;99553.78;6340302;22;19910;-86
2022/11/29 06:22:46;;;;;;;;;;;;;;;5.34;100.00;99554.50;6340027;22;19990;-86
2022/11/29 06:25:17;;;;;;;;;;;;;;;5.31;100.00;99555.44;6270978;22;19938;-86
2022/11/29 06:27:47;;;;;;;;;;;;;;;5.36;100.00;99557.94;6365061;22;20346;-87
2022/11/29 06:30:13;;;;;;;;;;;;;;;5.30;100.00;99558.09;6338715;22;19911;-87
2022/11/29 06:33:17;;;;;;;;;;;;;;;5.31;100.00;99559.84;6336794;22;20293;-86
2022/11/29 06:36:18;;;;;;;;;;;;;;;5.35;100.00;99561.50;6244631;23;19911;-86
2022/11/29 06:38:43;;;;;;;;;;;;;;;5.32;100.00;99566.84;6125079;23;20313;-86
2022/11/29 06:41:13;;;;;;;;;;;;;;;5.30;100.00;99563.34;6284623;22;19917;-87
2022/11/29 06:43:38;;;;;;;;;;;;;;;5.30;100.00;99565.97;6364930;22;19942;-86
2022/11/29 06:46:03;;;;;;;;;;;;;;;5.30;100.00;99564.25;6340066;22;19918;-87
2022/11/29 06:48:31;;;;;;;;;;;;;;;5.26;100.00;99571.34;6338753;22;19968;-87
2022/11/29 06:51:02;;;;;;;;;;;;;;;5.27;100.00;99569.56;6340191;22;19910;-88
2022/11/29 06:53:49;;;;;;;;;;;;;;;5.28;100.00;99574.78;6339909;22;19997;-87
2022/11/29 06:56:18;;;;;;;;;;;;;;;5.27;100.00;99573.06;6338590;22;20341;-87
2022/11/29 06:58:43;;;;;;;;;;;;;;;5.32;100.00;99577.34;6338402;22;19997;-87
2022/11/29 07:01:11;;;;;;;;;;;;;;;5.28;100.00;99582.66;6338803;22;19942;-88
2022/11/29 07:03:37;;;;;;;;;;;;;;;5.25;100.00;99577.50;6338349;22;20284;-87
2022/11/29 07:06:07;;;;;;;;;;;;;;;5.26;100.00;99581.84;6340164;22;19911;-88
2022/11/29 07:08:32;;;;;;;;;;;;;;;5.25;100.00;99588.00;6339880;22;20383;-88
2022/11/29 07:10:58;;;;;;;;;;;;;;;5.27;100.00;99577.44;6338287;22;19938;-88
2022/11/29 07:13:23;;;;;;;;;;;;;;;5.27;100.00;99586.19;6339859;22;20340;-90
2022/11/29 07:16:04;;;;;;;;;;;;;;;5.29;100.00;99580.91;6339875;22;19915;-88
2022/11/29 07:18:37;;;;;;;;;;;;;;;5.30;100.00;99584.38;6338057;22;19964;-88
2022/11/29 07:21:02;;;;;;;;;;;;;;;5.29;100.00;99583.53;6339895;22;19911;-88
2022/11/29 07:23:34;;;;;;;;;;;;;;;5.24;100.00;99585.41;6340106;22;20233;-88
2022/11/29 07:26:08;;;;;;;;;;;;;;;5.17;100.00;99587.31;6364514;22;19936;-87
2022/11/29 07:30:07;;;;;;;;;;;;;;;;;;;;;
2022/11/29 07:32:38;;;;;;;;;;;;;;;;;;;;;
2022/11/29 08:47:37;;;;;;;;;;;;;;;5.06;100.00;99681.25;6268301;22;19925;-90
2022/11/29 08:50:04;;;;;;;;;;;;;;;5.09;100.00;99678.56;6337737;22;19915;-89
2022/11/29 08:55:16;;;;;;;;;;;;;;;5.07;100.00;99682.97;6339125;22;19956;-90
2022/11/29 08:57:41;;;;;;;;;;;;;;;5.08;100.00;99682.94;6364106;22;20317;-89
2022/11/29 09:00:21;;;;;;;;;;;;;;;5.05;100.00;99683.00;6336490;22;19918;-95
2022/11/29 09:03:58;;;;;;;;;;;;;;;5.07;100.00;99682.97;6338229;22;19911;-92
2022/11/29 09:05:52;;;;;;;;;;;;;;;5.08;100.00;99684.72;6338644;22;19910;-90
2022/11/29 09:08:18;;;;;;;;;;;;;;;5.16;100.00;99688.03;6364199;22;19917;-89
2022/11/29 09:10:43;;;;;;;;;;;;;;;5.14;100.00;99684.56;6338931;22;19977;-90
2022/11/29 09:13:09;;;;;;;;;;;;;;;5.14;100.00;99692.47;6364415;22;19911;-90
2022/11/29 09:15:38;;;;;;;;;;;;;;;5.12;100.00;99691.59;6339445;22;19910;-89
2022/11/29 09:18:04;;;;;;;;;;;;;;;5.14;100.00;99692.47;6366111;22;20318;-90
2022/11/29 09:20:30;;;;;;;;;;;;;;;5.13;100.00;99688.09;6341393;22;20337;-90
2022/11/29 09:22:57;;;;;;;;;;;;;;;5.12;100.00;99691.59;6365724;22;19914;-90
2022/11/29 09:25:22;;;;;;;;;;;;;;;5.12;100.00;99693.38;6340977;22;19911;-89
2022/11/29 09:27:48;;;;;;;;;;;;;;;5.09;100.00;99705.69;6339679;22;19988;-90
2022/11/29 09:30:13;;;;;;;;;;;;;;;5.11;100.00;99700.41;6337669;22;19911;-94
2022/11/29 09:32:41;;;;;;;;;;;;;;;5.15;100.00;99707.31;6340083;22;19993;-94
2022/11/29 09:35:06;;;;;;;;;;;;;;;5.20;100.00;99715.09;6365858;22;19954;-90
2022/11/29 09:37:35;;;;;;;;;;;;;;;5.20;100.00;99710.72;6340807;22;20238;-90
2022/11/29 09:40:03;;;;;;;;;;;;;;;5.17;100.00;99716.03;6365789;22;19982;-89
2022/11/29 09:42:41;;;;;;;;;;;;;;;5.15;100.00;99723.06;6341008;22;19910;-90
2022/11/29 09:45:13;;;;;;;;;;;;;;;5.18;100.00;99720.38;6339693;22;19921;-89
2022/11/29 09:47:56;;;;;;;;;;;;;;;5.23;100.00;99717.66;6339903;22;19914;-89
2022/11/29 09:50:35;;;;;;;;;;;;;;;5.20;100.00;99726.47;6363498;22;20314;-90
2022/11/29 09:53:06;;;;;;;;;;;;;;;5.19;100.00;99719.47;6339178;22;19937;-89
2022/11/29 09:56:00;;;;;;;;;;;;;;;;;;;;;
2022/11/29 09:58:30;;;;;;;;;;;;;;;5.58;100.00;99714.19;6338842;22;20382;-83
2022/11/29 10:00:59;;;;;;;;;;;;;;;6.80;100.00;99707.63;6337006;22;19918;-87
2022/11/29 10:03:30;;;;;;;;;;;;;;;6.11;100.00;99716.47;6338537;22;20319;-87
2022/11/29 10:06:10;;;;;;;;;;;;;;;5.74;100.00;99706.81;6363351;22;20489;-88
2022/11/29 10:08:40;;;;;;;;;;;;;;;5.62;100.00;99713.25;6338771;22;19917;-87
2022/11/29 10:11:19;;;;;;;;;;;;;;;5.58;100.00;99703.69;6338653;22;19910;-89
2022/11/29 10:13:56;;;;;;;;;;;;;;;6.02;100.00;99706.19;6336743;22;20272;-88
2022/11/29 10:16:38;;;;;;;;;;;;;;;6.38;100.00;99705.25;6336969;22;19911;-89
2022/11/29 10:19:10;;;;;;;;;;;;;;;6.59;100.00;99707.31;6338597;22;19911;-88
2022/11/29 10:21:44;;;;;;;;;;;;;;;6.71;100.00;99701.69;6338946;22;19994;-88
2022/11/29 10:24:13;;;;;;;;;;;;;;;6.85;100.00;99713.59;6362945;22;19917;-86
2022/11/29 10:29:27;;;;;;;;;;;;;;;7.03;100.00;99712.19;6332498;22;19956;-89
2022/11/29 10:31:56;;;;;;;;;;;;;;;7.14;100.00;99715.38;6336889;22;19977;-87
2022/11/29 10:34:26;;;;;;;;;;;;;;;7.15;100.00;99710.97;6337168;22;19911;-89
2022/11/29 10:37:28;;;;;;;;;;;;;;;7.25;100.00;99715.06;6363513;22;19934;-88
2022/11/29 10:40:07;;;;;;;;;;;;;;;7.30;100.00;99721.03;6337277;22;19963;-88
2022/11/29 10:42:59;;;;;;;;;;;;;;;7.38;100.00;99724.31;6338566;22;19910;-87
2022/11/29 10:45:44;;;;;;;;;;;;;;;7.51;100.00;99719.50;6335253;22;19918;-89
2022/11/29 10:48:17;;;;;;;;;;;;;;;7.48;100.00;99722.25;6156599;22;4156858;-87
2022/11/29 10:50:43;;;;;;;;;;;;;;;7.55;100.00;99723.78;6338646;22;19957;-86
2022/11/29 10:53:10;;;;;;;;;;;;;;;7.59;100.00;99719.28;6365098;22;20370;-87
2022/11/29 10:55:58;;;;;;;;;;;;;;;7.62;100.00;99727.94;6340366;22;19990;-87
2022/11/29 10:58:24;;;;;;;;;;;;;;;7.64;100.00;99722.63;6365234;22;19910;-87
2022/11/29 11:00:52;;;;;;;;;;;;;;;7.79;100.00;99719.50;6338416;22;19986;-83
2022/11/29 11:03:30;;;;;;;;;;;;;;;8.32;100.00;99721.25;6340063;22;19917;-83
2022/11/29 11:06:01;;;;;;;;;;;;;;;8.58;100.00;99719.50;6338175;22;19910;-90
2022/11/29 11:08:27;;;;;;;;;;;;;;;8.33;100.00;99714.22;6338433;22;19949;-88
2022/11/29 11:10:54;;;;;;;;;;;;;;;8.17;100.00;99709.44;6339882;22;19911;-89
2022/11/29 11:13:20;;;;;;;;;;;;;;;8.17;100.00;99714.72;6364581;22;19911;-90
2022/11/29 11:15:46;;;;;;;;;;;;;;;8.16;100.00;99713.00;6363364;22;19910;-90
2022/11/29 11:18:18;;;;;;;;;;;;;;;8.16;100.00;99710.34;6338718;22;19918;-89
2022/11/29 11:20:51;;;;;;;;;;;;;;;8.15;100.00;99710.41;6338692;22;19921;-89
2022/11/29 11:23:34;;;;;;;;;;;;;;;;;;;;;
2022/11/29 11:26:05;;;;;;;;;;;;;;;8.18;100.00;99708.56;6340166;22;19985;-88
2022/11/29 11:28:35;;;;;;;;;;;;;;;8.22;100.00;99714.59;6364828;22;19914;-88
2022/11/29 11:31:04;;;;;;;;;;;;;;;8.25;100.00;99711.84;6337997;22;20238;-90
2022/11/29 11:33:31;;;;;;;;;;;;;;;8.27;100.00;99714.44;6339686;22;19963;-89
2022/11/29 11:36:11;;;;;;;;;;;;;;;8.28;100.00;99716.13;6339159;22;19948;-90
2022/11/29 11:38:47;;;;;;;;;;;;;;;8.28;100.00;99713.50;6364764;22;19911;-90
2022/11/29 11:44:27;;;;;;;;;;;;;;;8.32;100.00;99712.47;6339707;22;19918;-89
2022/11/29 11:47:15;;;;;;;;;;;;;;;8.34;100.00;99714.16;6337884;22;19917;-90
2022/11/29 11:50:01;;;;;;;;;;;;;;;8.35;100.00;99715.00;6337775;22;19919;-89
2022/11/29 11:52:29;;;;;;;;;;;;;;;8.37;100.00;99721.09;6338361;22;19911;-89
2022/11/29 11:55:00;;;;;;;;;;;;;;;8.39;100.00;99721.91;6339358;22;19911;-89
2022/11/29 11:57:27;;;;;;;;;;;;;;;8.41;100.00;99721.84;6339508;22;19911;-90
2022/11/29 11:59:57;;;;;;;;;;;;;;;8.43;100.00;99720.03;6337957;22;19993;-91
2022/11/29 12:02:35;;;;;;;;;;;;;;;8.44;100.00;99725.28;6362976;22;20215;-89
2022/11/29 12:05:04;;;;;;;;;;;;;;;8.45;100.00;99720.88;6364405;22;20234;-89
2022/11/29 12:07:31;;;;;;;;;;;;;;;8.50;100.00;99726.84;6337940;22;19911;-89
2022/11/29 12:10:00;;;;;;;;;;;;;;;8.50;100.00;99726.84;6339473;22;20316;-89
2022/11/29 12:12:28;;;;;;;;;;;;;;;8.53;100.00;99724.94;6337923;22;19993;-89
2022/11/29 12:15:00;;;;;;;;;;;;;;;8.54;100.00;99724.03;6364204;22;20290;-89
2022/11/29 12:17:28;;;;;;;;;;;;;;;8.56;100.00;99718.72;6339034;22;19964;-89
2022/11/29 12:20:23;;;;;;;;;;;;;;;8.57;100.00;99716.91;6339429;22;19910;-91
2022/11/29 12:22:52;;;;;;;;;;;;;;;8.61;100.00;99729.09;6338092;22;19910;-89
2022/11/29 12:25:38;;;;;;;;;;;;;;;8.63;100.00;99719.34;6337555;22;20289;-93
2022/11/29 12:28:08;;;;;;;;;;;;;;;8.64;100.00;99729.00;6364079;22;20310;-90
2022/11/29 12:30:55;;;;;;;;;;;;;;;8.66;100.00;99727.16;6337925;22;20049;-91
2022/11/29 12:33:29;;;;;;;;;;;;;;;8.68;100.00;99735.88;6338738;22;19976;-89
2022/11/29 12:36:00;;;;;;;;;;;;;;;8.68;100.00;99731.47;6337608;22;19911;-89
2022/11/29 12:38:43;;;;;;;;;;;;;;;8.70;100.00;99736.72;6337753;22;20237;-89
2022/11/29 12:41:31;;;;;;;;;;;;;;;8.73;100.00;99736.59;6339177;22;20245;-89
2022/11/29 12:44:02;;;;;;;;;;;;;;;8.77;100.00;99735.56;6339453;22;19914;-90
2022/11/29 12:49:54;;;;;;;;;;;;;;;8.78;100.00;99734.66;6262898;22;19965;-92
2022/11/29 12:52:20;;;;;;;;;;;;;;;8.77;100.00;99734.69;6337745;22;19961;-90
2022/11/29 12:55:08;;;;;;;;;;;;;;;8.80;100.00;99735.44;6339030;22;19911;-89
2022/11/29 12:57:45;;;;;;;;;;;;;;;8.83;100.00;99734.47;6363308;22;19915;-89
2022/11/29 13:00:13;;;;;;;;;;;;;;;8.80;100.00;99735.44;6338834;22;19915;-89
2022/11/29 13:02:41;;;;;;;;;;;;;;;8.84;100.00;99744.13;6339081;22;20024;-89
2022/11/29 13:05:35;;;;;;;;;;;;;;;8.83;100.00;99737.97;6339344;22;19911;-89
2022/11/29 13:08:04;;;;;;;;;;;;;;;8.85;100.00;99741.41;6311142;22;19914;-89
2022/11/29 13:10:35;;;;;;;;;;;;;;;8.82;100.00;99744.19;6337339;22;19918;-88
2022/11/29 13:13:19;;;;;;;;;;;;;;;8.89;100.00;99743.03;6337665;22;19984;-89
2022/11/29 13:15:57;;;;;;;;;;;;;;;8.91;100.00;99743.00;6362042;22;19911;-89
2022/11/29 13:18:41;;;;;;;;;;;;;;;8.92;100.00;99747.38;6337713;22;19910;-88
2022/11/29 13:21:12;;;;;;;;;;;;;;;8.94;100.00;99749.94;6339306;22;20380;-89
2022/11/29 13:23:48;;;;;;;;;;;;;;;8.92;100.00;99747.38;6363468;22;19937;-89
2022/11/29 13:26:13;;;;;;;;;;;;;;;8.93;100.00;99749.06;6363541;22;19917;-89
2022/11/29 13:28:41;;;;;;;;;;;;;;;8.93;100.00;99750.84;6363681;22;19945;-89
2022/11/29 13:31:22;;;;;;;;;;;;;;;8.97;100.00;99752.47;6337416;22;19910;-93
2022/11/29 13:34:02;;;;;;;;;;;;;;;9.01;100.00;99756.72;6363956;22;19990;-90
2022/11/29 13:36:37;;;;;;;;;;;;;;;8.97;100.00;99757.78;6339344;22;20310;-92
2022/11/29 13:39:08;;;;;;;;;;;;;;;9.01;100.00;99759.38;6363394;22;19989;-93
2022/11/29 13:41:40;;;;;;;;;;;;;;;8.99;100.00;99758.56;6339300;22;19917;-89
2022/11/29 13:44:28;;;;;;;;;;;;;;;9.03;100.00;99752.22;6363455;22;19964;-89
2022/11/29 13:46:53;;;;;;;;;;;;;;;8.99;100.00;99756.78;6278013;22;19940;-89
2022/11/29 13:49:20;;;;;;;;;;;;;;;9.03;100.00;99758.41;6337362;22;20212;-89
2022/11/29 13:52:02;;;;;;;;;;;;;;;9.05;100.00;99761.00;6337687;22;19934;-88
2022/11/29 13:54:28;;;;;;;;;;;;;;;9.05;100.00;99761.84;6363331;22;19942;-88
2022/11/29 13:57:04;;;;;;;;;;;;;;;9.08;100.00;99763.53;6337106;22;19910;-90
2022/11/29 13:59:30;;;;;;;;;;;;;;;9.07;100.00;99764.44;6338403;22;19928;-89
2022/11/29 14:01:57;;;;;;;;;;;;;;;9.08;100.00;99769.66;6363842;22;19917;-89
2022/11/29 14:04:34;;;;;;;;;;;;;;;9.10;100.00;99769.59;6340392;22;19959;-89
2022/11/29 14:07:03;;;;;;;;;;;;;;;9.12;100.00;99772.19;6340463;22;19964;-89
2022/11/29 14:09:47;;;;;;;;;;;;;;;9.15;100.00;99770.28;6365573;22;19956;-90
2022/11/29 14:12:18;;;;;;;;;;;;;;;9.18;100.00;99769.31;6338737;22;19910;-90
2022/11/29 14:14:49;;;;;;;;;;;;;;;9.18;100.00;99771.97;6339370;22;20317;-96
2022/11/29 14:17:34;;;;;;;;;;;;;;;9.16;100.00;99772.03;6364154;22;19910;-89
2022/11/29 14:20:29;;;;;;;;;;;;;;;9.20;100.00;99768.31;6316689;22;20326;-88
2022/11/29 14:23:03;;;;;;;;;;;;;;;9.18;100.00;99766.69;6327189;22;19910;-89
2022/11/29 14:25:30;;;;;;;;;;;;;;;9.20;100.00;99770.13;6340765;22;19996;-89
2022/11/29 14:27:56;;;;;;;;;;;;;;;9.14;100.00;99765.91;6365151;22;19914;-89
2022/11/29 14:30:31;;;;;;;;;;;;;;;8.34;100.00;99768.72;6363624;22;19993;-88
2022/11/29 14:33:07;;;;;;;;;;;;;;;7.89;100.00;99772.81;6365112;22;19952;-88
2022/11/29 14:35:38;;;;;;;;;;;;;;;7.68;100.00;99774.38;6364958;22;20237;-90
2022/11/29 14:38:18;;;;;;;;;;;;;;;7.52;100.00;99767.84;6364993;22;19911;-90
2022/11/29 14:40:48;;;;;;;;;;;;;;;7.38;100.00;99779.66;6338422;22;19938;-90
2022/11/29 14:43:19;;;;;;;;;;;;;;;7.32;100.00;99779.84;6364855;22;19917;-93
2022/11/29 14:46:12;;;;;;;;;;;;;;;7.25;100.00;99783.59;6337065;22;19910;-92
2022/11/29 14:51:17;;;;;;;;;;;;;;;7.13;100.00;99781.28;6299622;22;19967;-89
2022/11/29 14:53:44;;;;;;;;;;;;;;;7.09;100.00;99784.00;6312453;22;19918;-87
2022/11/29 14:56:41;;;;;;;;;;;;;;;7.01;100.00;99783.38;6335849;22;19911;-90
2022/11/29 14:59:25;;;;;;;;;;;;;;;6.99;100.00;99794.84;6310720;22;19910;-93
2022/11/29 15:01:51;;;;;;;;;;;;;;;6.98;100.00;99794.00;6338859;22;20399;-88
2022/11/29 15:04:16;;;;;;;;;;;;;;;6.95;100.00;99796.72;6286619;22;19920;-90
2022/11/29 15:06:58;;;;;;;;;;;;;;;6.91;100.00;99805.63;6280753;22;20399;-91
2022/11/29 15:09:25;;;;;;;;;;;;;;;6.82;100.00;99797.97;6153548;23;19965;-89
2022/11/29 15:12:01;;;;;;;;;;;;;;;6.81;100.00;99801.50;6152652;23;19936;-90
2022/11/29 15:14:41;;;;;;;;;;;;;;;6.80;100.00;99800.66;6255337;22;19916;-88
2022/11/29 15:17:16;;;;;;;;;;;;;;;6.73;100.00;99805.22;6279943;22;19912;-90
2022/11/29 15:22:59;;;;;;;;;;;;;;;6.66;100.00;99808.91;6170609;23;19913;-87
2022/11/29 15:25:27;;;;;;;;;;;;;;;6.68;100.00;99809.72;6152065;23;19916;-88
2022/11/29 15:27:56;;;;;;;;;;;;;;;6.64;100.00;99805.47;6152762;23;19923;-88
2022/11/29 15:30:29;;;;;;;;;;;;;;;6.60;100.00;99806.44;6253500;22;20313;-88
2022/11/29 15:32:55;;;;;;;;;;;;;;;6.53;100.00;99810.16;6254802;22;19920;-87
2022/11/29 15:35:20;;;;;;;;;;;;;;;6.54;100.00;99809.22;6255274;22;19917;-88
2022/11/29 15:37:47;;;;;;;;;;;;;;;6.58;100.00;99813.50;6152278;23;20297;-89
2022/11/29 15:40:39;;;;;;;;;;;;;;;6.49;100.00;99805.84;6255699;22;19955;-90
2022/11/29 15:43:25;;;;;;;;;;;;;;;6.45;100.00;99810.34;6153236;23;19913;-88
2022/11/29 15:45:54;;;;;;;;;;;;;;;6.42;100.00;99820.09;6280052;22;20390;-87
2022/11/29 15:48:24;;;;;;;;;;;;;;;6.39;100.00;99815.75;6255139;22;19919;-86
2022/11/29 15:50:49;;;;;;;;;;;;;;;6.43;100.00;99816.53;6255352;22;19913;-87
2022/11/29 15:53:17;;;;;;;;;;;;;;;6.43;100.00;99821.78;6152194;23;19991;-87
2022/11/29 15:55:48;;;;;;;;;;;;;;;6.36;100.00;99821.94;6152041;23;19917;-93
2022/11/29 15:58:14;;;;;;;;;;;;;;;6.37;100.00;99828.09;6254971;22;19987;-88
2022/11/29 16:00:41;;;;;;;;;;;;;;;6.34;100.00;99834.28;6150582;23;20252;-88
2022/11/29 16:03:15;;;;;;;;;;;;;;;6.26;100.00;99835.38;6254630;22;19920;-88
2022/11/29 16:05:41;;;;;;;;;;;;;;;6.26;100.00;99830.13;6255811;22;20364;-87
2022/11/29 16:08:13;;;;;;;;;;;;;;;6.27;100.00;99832.72;6151786;23;19962;-87
2022/11/29 16:10:42;;;;;;;;;;;;;;;6.24;100.00;99832.78;6151894;23;20328;-88
2022/11/29 16:13:26;;;;;;;;;;;;;;;6.14;100.00;99836.53;6152011;23;19912;-87
2022/11/29 16:16:03;;;;;;;;;;;;;;;6.10;100.00;99832.25;6150922;23;19912;-87
2022/11/29 16:18:29;;;;;;;;;;;;;;;6.08;100.00;99836.69;6175873;23;20199;-87
2022/11/29 16:21:02;;;;;;;;;;;;;;;6.06;100.00;99843.75;6151661;23;19919;-88
2022/11/29 16:23:34;;;;;;;;;;;;;;;6.07;100.00;99841.09;6152101;23;19936;-92
2022/11/29 16:26:04;;;;;;;;;;;;;;;6.01;100.00;99838.59;6151379;23;19959;-87
2022/11/29 16:28:36;;;;;;;;;;;;;;;6.00;100.00;99842.16;6185499;22;19911;-87
2022/11/29 16:31:03;;;;;;;;;;;;;;;6.64;100.00;99842.31;6308944;22;19925;-85
2022/11/29 16:33:39;;;;;;;;;;;;;;;6.35;100.00;99845.66;6311352;22;19918;-91
2022/11/29 16:36:13;;;;;;;;;;;;;;;6.15;100.00;99854.06;6337818;22;19915;-91
2022/11/29 16:38:43;;;;;;;;;;;;;;;6.09;100.00;99854.19;6335836;22;19915;-86
2022/11/29 16:41:20;;;;;;;;;;;;;;;6.00;100.00;99850.03;6338629;22;19917;-96
2022/11/29 16:43:46;;;;;;;;;;;;;;;5.95;100.00;99849.22;6339056;22;20353;-88
2022/11/29 16:46:18;;;;;;;;;;;;;;;5.91;100.00;99852.84;6337286;22;19967;-89
2022/11/29 16:48:43;;;;;;;;;;;;;;;5.85;100.00;99858.22;6338850;22;19937;-86
2022/11/29 16:51:09;;;;;;;;;;;;;;;5.87;100.00;99852.06;6338902;22;20319;-87
2022/11/29 16:53:46;;;;;;;;;;;;;;;5.92;100.00;99852.81;6338090;22;20290;-90
2022/11/29 16:56:37;;;;;;;;;;;;;;;5.82;100.00;99861.78;6312234;22;19917;-94
2022/11/29 16:59:01;;;;;;;;;;;;;;;5.75;100.00;99865.47;6337782;22;19911;-89
2022/11/29 17:01:32;;;;;;;;;;;;;;;5.79;100.00;99867.09;6337610;22;19910;-89
2022/11/29 17:03:58;;;;;;;;;;;;;;;5.80;100.00;99863.59;6339039;22;20322;-88
2022/11/29 17:06:24;;;;;;;;;;;;;;;5.75;100.00;99868.09;6341272;22;19918;-88
2022/11/29 17:09:20;;;;;;;;;;;;;;;;;;;;;
2022/11/29 17:11:48;;;;;;;;;;;;;;;5.62;100.00;99863.09;6183669;23;20000;-96
2022/11/29 17:14:13;;;;;;;;;;;;;;;5.64;100.00;99865.69;6325915;22;19914;-89
2022/11/29 17:16:39;;;;;;;;;;;;;;;5.64;100.00;99868.31;6338110;22;19953;-89
2022/11/29 17:19:04;;;;;;;;;;;;;;;5.64;100.00;99869.16;6338918;22;19906;-90
2022/11/29 17:21:32;;;;;;;;;;;;;;;5.62;100.00;99873.59;6338240;22;19934;-87
2022/11/29 17:23:57;;;;;;;;;;;;;;;5.67;100.00;99873.50;6310694;22;19911;-87
2022/11/29 17:26:23;;;;;;;;;;;;;;;5.65;100.00;99880.56;6311317;22;19929;-87
2022/11/29 17:28:50;;;;;;;;;;;;;;;5.61;100.00;99878.88;6338958;22;20284;-91
2022/11/29 17:31:17;;;;;;;;;;;;;;;5.57;100.00;99878.09;6361239;22;19919;-86
2022/11/29 17:33:42;;;;;;;;;;;;;;;5.61;100.00;99877.13;6338831;22;19990;-88
2022/11/29 17:36:09;;;;;;;;;;;;;;;5.56;100.00;99878.13;6338999;22;19945;-87
2022/11/29 17:38:37;;;;;;;;;;;;;;;5.60;100.00;99885.91;6340259;22;19911;-89
2022/11/29 17:41:09;;;;;;;;;;;;;;;5.58;100.00;99881.59;6365901;22;19911;-86
2022/11/29 17:43:35;;;;;;;;;;;;;;;5.55;100.00;99879.00;6365395;22;20227;-87
2022/11/29 17:46:07;;;;;;;;;;;;;;;5.58;100.00;99884.22;6338230;22;19917;-85
2022/11/29 17:48:33;;;;;;;;;;;;;;;5.46;100.00;99885.34;6340428;22;19916;-84
2022/11/29 17:50:58;;;;;;;;;;;;;;;5.50;100.00;99888.75;6339150;22;19950;-86
2022/11/29 17:53:24;;;;;;;;;;;;;;;5.51;100.00;99887.88;6338822;22;19988;-86
2022/11/29 17:55:49;;;;;;;;;;;;;;;5.51;100.00;99887.88;6339587;22;19993;-86
2022/11/29 17:58:14;;;;;;;;;;;;;;;5.41;100.00;99882.81;6339040;22;19911;-87
2022/11/29 18:00:39;;;;;;;;;;;;;;;5.43;100.00;99885.41;6363882;22;19911;-88
2022/11/29 18:03:05;;;;;;;;;;;;;;;5.43;100.00;99891.50;6339274;22;20413;-86
2022/11/29 18:05:30;;;;;;;;;;;;;;;5.43;100.00;99896.75;6365639;22;19989;-87
2022/11/29 18:07:58;;;;;;;;;;;;;;;5.40;100.00;99896.81;6338484;22;19989;-87
2022/11/29 18:10:24;;;;;;;;;;;;;;;5.39;100.00;99910.00;6338581;22;19915;-87
2022/11/29 18:12:49;;;;;;;;;;;;;;;5.40;100.00;99906.47;6364935;22;19918;-87
2022/11/29 18:15:15;;;;;;;;;;;;;;;5.40;100.00;99906.47;6337239;22;19910;-87
2022/11/29 18:17:40;;;;;;;;;;;;;;;5.37;100.00;99914.44;6338408;22;19911;-87
2022/11/29 18:20:06;;;;;;;;;;;;;;;5.36;100.00;99910.06;6364222;22;19985;-87
2022/11/29 18:22:49;;;;;;;;;;;;;;;5.31;100.00;99911.91;6364850;22;20019;-87
2022/11/29 18:25:14;;;;;;;;;;;;;;;5.34;100.00;99917.97;6364725;22;19985;-86
2022/11/29 18:27:39;;;;;;;;;;;;;;;5.32;100.00;99911.88;6340593;22;20281;-87
2022/11/29 18:30:05;;;;;;;;;;;;;;;5.30;100.00;99915.41;6338098;22;20311;-87
2022/11/29 18:32:31;;;;;;;;;;;;;;;5.24;100.00;99909.41;6363330;22;20310;-87
2022/11/29 18:37:34;;;;;;;;;;;;;;;5.24;100.00;99924.31;6337266;22;20246;-87
2022/11/29 18:40:15;;;;;;;;;;;;;;;5.30;100.00;99921.56;6337703;22;19919;-88
2022/11/29 18:42:41;;;;;;;;;;;;;;;5.21;100.00;99921.72;6311658;22;19910;-89
2022/11/29 18:45:08;;;;;;;;;;;;;;;5.20;100.00;99926.13;6338976;22;19917;-87
2022/11/29 18:47:34;;;;;;;;;;;;;;;5.25;100.00;99929.53;6309334;22;20322;-88
2022/11/29 18:50:01;;;;;;;;;;;;;;;5.20;100.00;99926.13;6338030;22;19938;-85
2022/11/29 18:52:26;;;;;;;;;;;;;;;5.23;100.00;99931.34;6337085;22;20272;-85
2022/11/29 18:54:52;;;;;;;;;;;;;;;5.22;100.00;99934.84;6337220;22;19959;-85
2022/11/29 18:57:17;;;;;;;;;;;;;;;5.27;100.00;99934.75;6311103;22;19915;-84
2022/11/29 18:59:43;;;;;;;;;;;;;;;5.26;100.00;99935.66;6337243;22;19914;-85
2022/11/29 19:02:08;;;;;;;;;;;;;;;5.21;100.00;99943.59;6337923;22;19964;-85
2022/11/29 19:04:34;;;;;;;;;;;;;;;5.26;100.00;99944.41;6326822;22;19917;-83
2022/11/29 19:06:59;;;;;;;;;;;;;;;5.20;100.00;99947.16;6337186;22;19941;-87
2022/11/29 19:09:25;;;;;;;;;;;;;;;5.19;100.00;99950.66;6311665;22;19910;-84
2022/11/29 19:11:50;;;;;;;;;;;;;;;5.24;100.00;99945.31;6336986;22;20279;-84
2022/11/29 19:14:16;;;;;;;;;;;;;;;5.22;100.00;99945.34;6337315;22;19917;-84
2022/11/29 19:16:42;;;;;;;;;;;;;;;5.22;100.00;99949.75;6309862;22;19960;-83
2022/11/29 19:19:08;;;;;;;;;;;;;;;5.21;100.00;99948.84;6311057;22;19911;-84
2022/11/29 19:21:34;;;;;;;;;;;;;;;5.16;100.00;99942.84;6310271;22;19998;-85
2022/11/29 19:24:00;;;;;;;;;;;;;;;5.19;100.00;99949.81;6336622;22;19921;-84
2022/11/29 19:26:29;;;;;;;;;;;;;;;5.19;100.00;99949.81;6311137;22;19917;-85
2022/11/29 19:28:54;;;;;;;;;;;;;;;5.17;100.00;99949.84;6310470;22;19917;-85
2022/11/29 19:31:24;;;;;;;;;;;;;;;5.22;100.00;99947.97;6334659;22;19914;-84
2022/11/29 19:33:51;;;;;;;;;;;;;;;5.20;100.00;99952.41;6310881;22;19990;-89
2022/11/29 19:36:21;;;;;;;;;;;;;;;5.19;100.00;99955.06;6338393;22;19946;-84
2022/11/29 19:38:49;;;;;;;;;;;;;;;5.17;100.00;99960.34;6335497;22;19910;-86
2022/11/29 19:41:22;;;;;;;;;;;;;;;5.13;100.00;99952.53;6337351;22;19949;-84
2022/11/29 19:43:47;;;;;;;;;;;;;;;5.14;100.00;99955.13;6363189;22;19910;-85
2022/11/29 19:46:20;;;;;;;;;;;;;;;5.13;100.00;99956.03;6335030;22;19959;-84
2022/11/29 19:48:45;;;;;;;;;;;;;;;5.15;100.00;99956.00;6336083;22;19914;-85
2022/11/29 19:51:12;;;;;;;;;;;;;;;5.18;100.00;99961.19;6335930;22;19963;-83
2022/11/29 19:53:38;;;;;;;;;;;;;;;5.17;100.00;99965.59;6362257;22;19911;-89
2022/11/29 19:56:04;;;;;;;;;;;;;;;5.09;100.00;99957.84;6335674;22;20308;-85